Auberry, California
Current Conditions -  °F | °C
As of 5:53 AM on Monday 22 Dec 2014 (Local Time) from KFAT Reporting Station
Haze Haze  
Wind Chill: 13°   Ceiling: 1200
Heat Index: 13°   Visibility: 3mi
Dew Point: 12°   Wind: 0mph
Humidity: 93%   Direction: NA
Pressure: 30.25"   Gusts: NA
Location:  37.08°N, 119.49°W
Report Text: KFAT 221353Z 00000KT 3SM BR OVC012 13/12 A3025 RMK AO2 SLP242 T01280117
Loading
Personal Weather Stations






























Interactive Weather Map New forecast layout! Learn more

10-Day Weather Forecast

Advertisements
Track Severe Weather on mobile